.
WxDataArchive / Data Records for 2007-05-13
2007-05-12 May 2007 2007-05-14

Data Records for Sunday, 13 May 2007

Time	Temp	Chill	HIndex	Humid	Dewpt	 Wind 	HiWind	WindDir	Rain 	Barom 
-----	----	-----	------	-----	-----	------	------	-------	-----	----- 
00:00	50.1	50.1	50.1	57	35.5	0	2	90	0.00	30.203 
00:05	49.8	49.8	49.8	56	34.7	1	2	112	0.00	30.201 
00:10	49.8	49.8	49.8	56	34.7	1	3	90	0.00	30.203 
00:15	49.6	49.6	49.6	56	34.6	0	2	68	0.00	30.205 
00:20	49.5	49.5	49.5	56	34.5	0	2	112	0.00	30.209 
00:25	49.4	49.4	49.4	54	33.5	1	3	45	0.00	30.210 
00:30	49.4	49.4	49.4	55	33.9	1	3	68	0.00	30.210 
00:35	49.2	49.2	49.2	55	33.7	1	3	68	0.00	30.210 
00:40	49.1	49.1	49.1	56	34.1	0	2	68	0.00	30.209 
00:45	48.8	48.8	48.8	56	33.8	0	3	68	0.00	30.209 
00:50	48.6	48.6	48.6	55	33.2	1	6	68	0.00	30.209 
00:55	48.5	48.5	48.5	56	33.5	0	2	45	0.00	30.209 
01:00	48.3	48.3	48.3	56	33.3	0	1	45	0.00	30.207 
01:05	48.2	48.2	48.2	58	34.1	0	1	45	0.00	30.207 
01:10	47.9	47.9	47.9	58	33.8	0	1	45	0.00	30.207 
01:15	47.6	47.6	47.6	58	33.6	0	0	---	0.00	30.206 
01:20	47.1	47.1	47.1	58	33.1	0	1	45	0.00	30.207 
01:25	46.7	46.7	46.7	60	33.6	0	1	45	0.00	30.210 
01:30	46.4	46.4	46.4	61	33.7	0	0	---	0.00	30.216 
01:35	46.0	46.0	46.0	62	33.7	0	0	---	0.00	30.218 
01:40	45.5	45.5	45.5	63	33.6	0	0	---	0.00	30.219 
01:45	45.2	45.2	45.2	65	34.1	0	0	---	0.00	30.219 
01:50	44.8	44.8	44.8	66	34.1	0	0	---	0.00	30.220 
01:55	44.3	44.3	44.3	67	34.0	0	0	---	0.00	30.219 
02:00	43.9	43.9	43.9	67	33.7	0	0	---	0.00	30.220 
02:05	43.6	43.6	43.6	69	34.1	0	0	---	0.00	30.220 
02:10	43.3	43.3	43.3	69	33.8	0	0	---	0.00	30.224 
02:15	43.2	43.2	43.2	69	33.7	0	0	---	0.00	30.226 
02:20	43.3	43.3	43.3	67	33.1	0	1	45	0.00	30.225 
02:25	43.3	43.3	43.3	67	33.1	0	0	---	0.00	30.225 
02:30	43.3	43.3	43.3	65	32.3	0	1	45	0.00	30.226 
02:35	43.2	43.2	43.2	65	32.2	0	0	---	0.00	30.230 
02:40	42.9	42.9	42.9	65	32.0	0	0	---	0.00	30.232 
02:45	42.6	42.6	42.6	67	32.4	0	0	---	0.00	30.233 
02:50	42.3	42.3	42.3	68	32.5	0	0	---	0.00	30.235 
02:55	42.2	42.2	42.2	68	32.4	0	0	---	0.00	30.236 
03:00	41.9	41.9	41.9	69	32.5	0	0	---	0.00	30.237 
03:05	41.6	41.6	41.6	70	32.6	0	0	---	0.00	30.236 
03:10	41.3	41.3	41.3	69	31.9	0	0	---	0.00	30.239 
03:15	41.1	41.1	41.1	69	31.7	0	0	---	0.00	30.242 
03:20	40.9	40.9	40.9	68	31.2	0	0	---	0.00	30.242 
03:25	40.8	40.8	40.8	68	31.1	0	0	---	0.00	30.241 
03:30	40.6	40.6	40.6	67	30.5	0	0	---	0.00	30.241 
03:35	40.5	40.5	40.5	65	29.7	0	0	---	0.00	30.241 
03:40	40.3	40.3	40.3	66	29.9	0	0	---	0.00	30.242 
03:45	40.2	40.2	40.2	65	29.4	0	0	---	0.00	30.244 
03:50	40.2	40.2	40.2	64	29.0	0	0	---	0.00	30.245 
03:55	40.1	40.1	40.1	64	28.9	0	0	---	0.00	30.244 
04:00	40.1	40.1	40.1	64	28.9	0	0	---	0.00	30.243 
04:05	39.9	39.9	39.9	64	28.7	0	0	---	0.00	30.247 
04:10	39.8	39.8	39.8	66	29.4	0	0	---	0.00	30.246 
04:15	39.8	39.8	39.8	65	29.0	0	1	45	0.00	30.248 
04:20	39.8	39.8	39.8	67	29.8	0	0	---	0.00	30.248 
04:25	39.9	39.9	39.9	62	28.0	0	2	45	0.00	30.247 
04:30	40.3	40.3	40.3	61	27.9	0	2	45	0.00	30.245 
04:35	40.8	40.8	40.8	58	27.2	0	2	45	0.00	30.245 
04:40	41.1	41.1	41.1	56	26.6	0	3	45	0.00	30.245 
04:45	41.2	41.2	41.2	55	26.3	0	3	112	0.00	30.246 
04:50	41.3	41.3	41.3	54	25.9	0	2	135	0.00	30.245 
04:55	41.3	41.3	41.3	54	25.9	0	1	112	0.00	30.246 
05:00	41.2	41.2	41.2	55	26.3	0	2	112	0.00	30.248 
05:05	41.1	41.1	41.1	56	26.6	0	1	112	0.00	30.253 
05:10	40.9	40.9	40.9	55	26.0	0	1	112	0.00	30.255 
05:15	40.8	40.8	40.8	58	27.2	0	1	112	0.00	30.256 
05:20	40.6	40.6	40.6	58	27.0	0	2	112	0.00	30.257 
05:25	40.5	40.5	40.5	57	26.5	0	1	112	0.00	30.258 
05:30	40.3	40.3	40.3	58	26.7	0	2	112	0.00	30.258 
05:35	40.5	40.5	40.5	57	26.5	1	2	68	0.00	30.258 
05:40	40.5	40.5	40.5	58	26.9	1	2	68	0.00	30.258 
05:45	40.5	40.5	40.5	57	26.5	1	3	68	0.00	30.259 
05:50	40.5	40.5	40.5	58	26.9	0	2	68	0.00	30.258 
05:55	40.5	40.5	40.5	57	26.5	1	3	90	0.00	30.257 
06:00	40.6	40.6	40.6	57	26.6	1	4	112	0.00	30.257 
06:05	40.8	40.8	40.8	57	26.8	1	3	68	0.00	30.261 
06:10	40.9	40.9	40.9	58	27.3	1	2	112	0.00	30.259 
06:15	41.2	41.2	41.2	58	27.6	1	5	45	0.00	30.260 
06:20	41.8	41.8	41.8	57	27.7	1	2	68	0.00	30.259 
06:25	42.3	42.3	42.3	56	27.7	1	3	68	0.00	30.260 
06:30	42.6	42.6	42.6	55	27.6	2	6	90	0.00	30.261 
06:35	42.9	42.9	42.9	56	28.3	1	4	112	0.00	30.263 
06:40	43.3	43.3	43.3	56	28.7	1	3	112	0.00	30.265 
06:45	43.6	43.6	43.6	55	28.5	1	2	112	0.00	30.266 
06:50	44.1	44.1	44.1	55	29.0	1	4	45	0.00	30.268 
06:55	44.5	44.5	44.5	55	29.3	1	4	45	0.00	30.270 
07:00	44.8	44.8	44.8	55	29.6	1	5	90	0.00	30.272 
07:05	45.1	45.1	45.1	56	30.4	1	3	90	0.00	30.279 
07:10	45.7	45.7	45.7	55	30.5	1	4	112	0.00	30.283 
07:15	46.1	46.1	46.1	56	31.3	1	3	90	0.00	30.283 
07:20	46.4	46.4	46.4	53	30.2	1	4	0	0.00	30.281 
07:25	46.5	46.5	46.5	55	31.2	2	4	90	0.00	30.282 
07:30	46.8	46.8	46.8	55	31.5	1	3	90	0.00	30.285 
07:35	47.6	47.6	47.6	56	32.7	1	3	90	0.00	30.287 
07:40	47.9	47.9	47.9	54	32.1	1	4	68	0.00	30.287 
07:45	48.2	48.2	48.2	55	32.8	1	4	68	0.00	30.290 
07:50	48.5	48.5	48.5	53	32.2	2	5	90	0.00	30.292 
07:55	48.9	48.9	48.9	50	31.1	1	4	90	0.00	30.299 
08:00	49.2	49.2	49.2	52	32.3	2	5	112	0.00	30.298 
08:05	48.9	48.9	48.9	53	32.5	3	5	90	0.00	30.302 
08:10	48.8	48.8	48.8	54	32.9	2	6	90	0.00	30.305 
08:15	48.9	48.9	48.9	54	33.0	2	5	90	0.00	30.306 
08:20	49.6	49.6	49.6	54	33.6	2	6	90	0.00	30.306 
08:25	49.8	49.8	49.8	51	32.4	3	9	90	0.00	30.305 
08:30	50.1	50.1	50.1	52	33.2	2	5	112	0.00	30.306 
08:35	50.4	50.4	50.4	53	33.9	3	6	90	0.00	30.305 
08:40	50.7	50.7	50.7	52	33.7	3	7	112	0.00	30.304 
08:45	50.7	50.7	50.7	51	33.2	3	7	112	0.00	30.312 
08:50	51.1	51.1	51.1	52	34.1	3	7	112	0.00	30.315 
08:55	51.3	51.3	51.3	50	33.3	3	7	90	0.00	30.315 
09:00	51.9	51.9	51.9	52	34.8	2	6	90	0.00	30.312 
09:05	52.2	52.2	52.2	53	35.6	3	5	90	0.00	30.319 
09:10	52.3	52.3	52.3	53	35.7	3	6	112	0.00	30.317 
09:15	52.8	52.8	52.8	51	35.2	3	6	90	0.00	30.319 
09:20	53.1	53.1	53.1	50	35.0	2	5	90	0.00	30.323 
09:25	53.6	53.6	53.6	49	34.9	2	9	90	0.00	30.324 
09:30	53.6	53.6	53.6	50	35.4	3	8	90	0.00	30.327 
09:35	53.8	53.8	53.8	50	35.6	2	5	112	0.00	30.329 
09:40	54.2	54.2	54.2	50	36.0	1	5	90	0.00	30.330 
09:45	55.1	55.1	55.1	51	37.3	2	5	112	0.00	30.326 
09:50	55.0	55.0	55.0	48	35.7	2	6	90	0.00	30.322 
09:55	54.4	54.4	54.4	49	35.6	2	6	90	0.00	30.324 
10:00	54.4	54.4	54.4	50	36.2	0	2	90	0.00	30.322 
10:05	54.7	54.7	54.7	50	36.4	2	5	90	0.00	30.325 
10:10	54.4	54.4	54.4	50	36.2	2	4	90	0.00	30.323 
10:15	54.7	54.7	54.7	51	36.9	2	6	90	0.00	30.322 
10:20	55.3	55.3	55.3	51	37.5	2	6	90	0.00	30.323 
10:25	55.9	55.9	55.9	50	37.5	2	5	90	0.00	30.317 
10:30	56.2	56.2	56.2	48	36.8	2	6	90	0.00	30.312 
10:35	56.3	56.3	56.3	48	36.9	2	5	90	0.00	30.315 
10:40	56.7	56.7	56.7	49	37.8	0	2	68	0.00	30.317 
10:45	56.7	56.7	56.7	47	36.7	2	5	90	0.00	30.318 
10:50	56.5	56.5	56.5	47	36.5	2	6	90	0.00	30.318 
10:55	56.9	56.9	56.9	47	36.9	2	6	90	0.00	30.319 
11:00	57.3	57.3	57.3	51	39.3	3	6	112	0.00	30.310 
11:05	57.5	57.5	57.5	49	38.5	2	6	90	0.00	30.307 
11:10	57.3	57.3	57.3	50	38.8	2	6	90	0.00	30.308 
11:15	57.3	57.3	57.3	50	38.8	2	5	90	0.00	30.310 
11:20	57.6	57.6	57.6	46	37.0	2	6	90	0.00	30.307 
11:25	57.5	57.5	57.5	43	35.2	2	6	90	0.00	30.304 
11:30	57.5	57.5	57.5	44	35.8	3	7	90	0.00	30.303 
11:35	57.8	57.8	57.8	47	37.7	1	7	112	0.00	30.304 
11:40	57.8	57.8	57.8	42	34.9	2	5	90	0.00	30.303 
11:45	58.1	58.1	58.1	42	35.1	2	5	112	0.00	30.303 
11:50	58.6	58.6	58.6	44	36.8	2	6	90	0.00	30.295 
11:55	58.7	58.7	58.7	43	36.3	2	5	90	0.00	30.293 
12:00	58.6	58.6	58.6	38	33.1	2	5	112	0.00	30.294 
12:05	58.3	58.3	58.3	41	34.7	2	6	90	0.00	30.292 
12:10	58.9	58.9	58.9	44	37.0	2	4	112	0.00	30.291 
12:15	60.1	60.1	60.1	40	35.7	2	5	90	0.00	30.290 
12:20	60.5	60.5	60.5	39	35.4	2	6	112	0.00	30.290 
12:25	61.0	61.0	61.0	41	37.1	3	6	90	0.00	30.289 
12:30	61.2	61.2	61.2	41	37.3	3	7	112	0.00	30.288 
12:35	60.9	60.9	60.9	38	35.1	3	6	90	0.00	30.283 
12:40	60.7	60.7	60.7	41	36.9	3	7	90	0.00	30.278 
12:45	61.3	61.3	61.3	43	38.6	2	7	90	0.00	30.276 
12:50	61.5	61.5	61.5	38	35.7	3	7	90	0.00	30.274 
12:55	62.0	62.0	62.0	38	36.1	2	6	90	0.00	30.275 
13:00	62.4	62.4	62.4	40	37.8	1	4	90	0.00	30.273 
13:05	62.9	62.9	62.9	43	40.1	2	6	112	0.00	30.276 
13:10	63.2	63.2	63.2	38	37.2	2	6	112	0.00	30.276 
13:15	63.1	63.1	63.1	33	33.5	4	10	112	0.00	30.275 
13:20	62.9	62.9	62.9	33	33.4	3	10	112	0.00	30.271 
13:25	63.2	63.2	63.2	36	35.8	3	7	112	0.00	30.270 
13:30	63.9	63.9	63.9	37	37.1	2	6	90	0.00	30.271 
13:35	64.0	64.0	64.0	35	35.8	2	5	112	0.00	30.270 
13:40	64.3	64.3	64.3	38	38.1	2	4	112	0.00	30.259 
13:45	64.2	64.2	64.2	37	37.4	3	7	90	0.00	30.259 
13:50	63.9	63.9	63.9	31	32.7	2	6	90	0.00	30.254 
13:55	64.5	64.5	64.5	38	38.3	1	5	135	0.00	30.254 
14:00	64.8	64.8	64.8	32	34.2	2	9	112	0.00	30.249 
14:05	64.8	64.8	64.8	37	37.9	3	10	112	0.00	30.249 
14:10	65.2	65.2	65.2	43	42.1	2	6	90	0.00	30.246 
14:15	65.5	65.5	65.5	33	35.6	2	7	112	0.00	30.246 
14:20	65.5	65.5	65.5	30	33.2	3	6	112	0.00	30.250 
14:25	65.6	65.6	65.6	35	37.2	3	9	112	0.00	30.243 
14:30	65.3	65.3	65.3	31	33.9	4	9	90	0.00	30.244 
14:35	65.3	65.3	65.3	33	35.5	2	5	112	0.00	30.242 
14:40	65.8	65.8	65.8	30	33.5	3	6	90	0.00	30.237 
14:45	65.6	65.6	65.6	30	33.3	2	6	90	0.00	30.233 
14:50	65.8	65.8	65.8	31	34.3	2	5	90	0.00	30.232 
14:55	66.4	66.4	66.4	27	31.4	2	4	90	0.00	30.227 
15:00	66.6	66.6	66.6	26	30.6	3	6	112	0.00	30.226 
15:05	66.4	66.4	66.4	27	31.4	2	6	112	0.00	30.228 
15:10	66.4	66.4	66.4	28	32.3	2	7	90	0.00	30.222 
15:15	66.9	66.9	66.9	29	33.6	2	6	90	0.00	30.214 
15:20	66.9	66.9	66.9	26	30.9	3	6	112	0.00	30.214 
15:25	66.9	66.9	66.9	28	32.7	2	5	90	0.00	30.213 
15:30	67.1	67.1	67.1	26	31.1	3	6	90	0.00	30.213 
15:35	67.4	67.4	67.4	27	32.3	2	5	90	0.00	30.212 
15:40	67.8	67.8	67.8	28	33.5	2	7	90	0.00	30.211 
15:45	67.8	67.8	67.8	31	36.1	1	5	90	0.00	30.211 
15:50	68.1	68.1	68.1	26	31.9	1	7	90	0.00	30.211 
15:55	67.9	67.9	67.9	30	35.3	3	9	90	0.00	30.211 
16:00	67.9	67.9	67.9	31	36.1	2	6	90	0.00	30.211 
16:05	67.9	67.9	67.9	28	33.6	3	7	90	0.00	30.209 
16:10	68.1	68.1	68.1	28	33.8	2	5	112	0.00	30.209 
16:15	68.1	68.1	68.1	27	32.9	2	5	90	0.00	30.210 
16:20	68.1	68.1	68.1	28	33.8	2	6	90	0.00	30.206 
16:25	67.8	67.8	67.8	27	32.6	3	6	90	0.00	30.209 
16:30	67.6	67.6	67.6	26	31.5	2	7	90	0.00	30.209 
16:35	67.6	67.6	67.6	27	32.4	2	5	90	0.00	30.209 
16:40	67.8	67.8	67.8	25	30.7	2	5	90	0.00	30.206 
16:45	67.6	67.6	67.6	27	32.4	2	7	90	0.00	30.199 
16:50	67.8	67.8	67.8	27	32.6	1	4	112	0.00	30.197 
16:55	67.8	67.8	67.8	26	31.7	1	5	112	0.00	30.197 
17:00	67.4	67.4	67.4	25	30.4	2	5	90	0.00	30.198 
17:05	67.1	67.1	67.1	25	30.1	2	6	90	0.00	30.196 
17:10	66.8	66.8	66.8	26	30.8	2	5	112	0.00	30.198 
17:15	66.9	66.9	66.9	26	30.9	1	6	112	0.00	30.199 
17:20	67.1	67.1	67.1	27	32.0	1	3	112	0.00	30.201 
17:25	67.1	67.1	67.1	27	32.0	2	4	68	0.00	30.198 
17:30	67.1	67.1	67.1	26	31.1	1	5	68	0.00	30.196 
17:35	67.1	67.1	67.1	29	33.8	2	5	90	0.00	30.196 
17:40	67.1	67.1	67.1	27	32.0	2	4	90	0.00	30.196 
17:45	66.9	66.9	66.9	27	31.8	2	5	68	0.00	30.195 
17:50	66.4	66.4	66.4	26	30.5	2	4	112	0.00	30.195 
17:55	66.3	66.3	66.3	27	31.3	2	5	90	0.00	30.196 
18:00	66.0	66.0	66.0	28	32.0	2	4	90	0.00	30.194 
18:05	66.0	66.0	66.0	27	31.1	1	5	90	0.00	30.186 
18:10	65.8	65.8	65.8	27	30.9	1	4	112	0.00	30.185 
18:15	65.6	65.6	65.6	27	30.7	2	4	112	0.00	30.190 
18:20	65.6	65.6	65.6	27	30.7	2	4	90	0.00	30.189 
18:25	65.6	65.6	65.6	27	30.7	2	4	112	0.00	30.188 
18:30	65.3	65.3	65.3	28	31.4	2	5	112	0.00	30.185 
18:35	65.2	65.2	65.2	27	30.4	2	4	90	0.00	30.183 
18:40	64.8	64.8	64.8	29	31.8	1	4	90	0.00	30.186 
18:45	64.7	64.7	64.7	30	32.5	1	4	90	0.00	30.186 
18:50	64.5	64.5	64.5	29	31.5	2	4	90	0.00	30.188 
18:55	64.3	64.3	64.3	31	33.0	1	4	90	0.00	30.190 
19:00	64.0	64.0	64.0	32	33.5	1	3	90	0.00	30.192 
19:05	63.7	63.7	63.7	32	33.3	1	3	90	0.00	30.187 
19:10	63.5	63.5	63.5	32	33.1	1	3	90	0.00	30.185 
19:15	63.2	63.2	63.2	32	32.9	1	3	90	0.00	30.186 
19:20	62.9	62.9	62.9	34	34.1	1	3	90	0.00	30.184 
19:25	62.6	62.6	62.6	36	35.3	0	2	90	0.00	30.188 
19:30	62.1	62.1	62.1	36	34.8	1	2	90	0.00	30.191 
19:35	61.8	61.8	61.8	37	35.3	0	1	90	0.00	30.192 
19:40	61.3	61.3	61.3	36	34.1	1	2	90	0.00	30.193 
19:45	60.9	60.9	60.9	36	33.8	1	2	90	0.00	30.191 
19:50	60.5	60.5	60.5	38	34.8	0	2	90	0.00	30.194 
19:55	60.1	60.1	60.1	39	35.1	0	1	90	0.00	30.197 
20:00	59.5	59.5	59.5	40	35.2	0	2	90	0.00	30.196 
20:05	58.9	58.9	58.9	41	35.2	0	1	90	0.00	30.196 
20:10	58.3	58.3	58.3	40	34.1	0	1	90	0.00	30.195 
20:15	58.0	58.0	58.0	39	33.2	0	2	90	0.00	30.195 
20:20	57.8	57.8	57.8	39	33.0	1	2	90	0.00	30.195 
20:25	57.6	57.6	57.6	39	32.8	1	2	90	0.00	30.194 
20:30	57.5	57.5	57.5	40	33.4	1	2	90	0.00	30.194 
20:35	57.5	57.5	57.5	39	32.7	1	3	90	0.00	30.193 
20:40	57.3	57.3	57.3	39	32.6	1	4	90	0.00	30.193 
20:45	57.2	57.2	57.2	37	31.2	1	4	90	0.00	30.196 
20:50	57.0	57.0	57.0	39	32.3	0	2	90	0.00	30.197 
20:55	56.9	56.9	56.9	41	33.4	1	3	90	0.00	30.200 
21:00	56.6	56.6	56.6	38	31.3	1	3	90	0.00	30.198 
21:05	56.5	56.5	56.5	36	29.9	1	4	90	0.00	30.194 
21:10	56.5	56.5	56.5	35	29.2	1	3	90	0.00	30.194 
21:15	56.2	56.2	56.2	36	29.6	1	2	90	0.00	30.195 
21:20	55.9	55.9	55.9	38	30.7	1	2	90	0.00	30.194 
21:25	55.6	55.6	55.6	37	29.7	1	3	90	0.00	30.194 
21:30	55.1	55.1	55.1	37	29.3	1	3	90	0.00	30.197 
21:35	54.8	54.8	54.8	39	30.3	1	2	90	0.00	30.198 
21:40	54.7	54.7	54.7	37	28.9	1	3	90	0.00	30.196 
21:45	54.5	54.5	54.5	38	29.4	1	3	90	0.00	30.194 
21:50	54.4	54.4	54.4	37	28.7	2	4	90	0.00	30.195 
21:55	54.2	54.2	54.2	37	28.5	2	3	90	0.00	30.194 
22:00	54.1	54.1	54.1	38	29.1	1	3	90	0.00	30.193 
22:05	53.8	53.8	53.8	39	29.4	1	2	90	0.00	30.186 
22:10	53.6	53.6	53.6	40	29.9	1	2	90	0.00	30.180 
22:15	53.3	53.3	53.3	39	29.0	1	3	90	0.00	30.181 
22:20	53.2	53.2	53.2	39	28.9	1	5	90	0.00	30.184 
22:25	53.1	53.1	53.1	38	28.2	1	4	90	0.00	30.179 
22:30	52.8	52.8	52.8	39	28.5	2	4	90	0.00	30.178 
22:35	52.6	52.6	52.6	39	28.4	2	4	90	0.00	30.179 
22:40	52.3	52.3	52.3	40	28.7	2	4	90	0.00	30.177 
22:45	52.2	52.2	52.2	41	29.2	2	4	112	0.00	30.169 
22:50	52.0	52.0	52.0	41	29.0	1	3	112	0.00	30.172 
22:55	51.9	51.9	51.9	41	28.9	1	4	112	0.00	30.179 
23:00	51.7	51.7	51.7	40	28.2	1	2	68	0.00	30.182 
23:05	51.4	51.4	51.4	43	29.7	0	2	68	0.00	30.188 
23:10	51.3	51.3	51.3	43	29.6	0	2	68	0.00	30.185 
23:15	51.0	51.0	51.0	43	29.3	0	1	68	0.00	30.181 
23:20	50.7	50.7	50.7	45	30.1	0	1	68	0.00	30.189 
23:25	50.4	50.4	50.4	45	29.9	0	1	68	0.00	30.185 
23:30	50.1	50.1	50.1	43	28.5	0	3	68	0.00	30.184 
23:35	49.9	49.9	49.9	44	28.9	0	2	68	0.00	30.181 
23:40	49.8	49.8	49.8	44	28.8	0	1	68	0.00	30.180 
23:45	49.8	49.8	49.8	45	29.3	0	1	68	0.00	30.179 
23:50	49.5	49.5	49.5	48	30.6	0	0	---	0.00	30.180 
23:55	49.2	49.2	49.2	48	30.4	0	1	68	0.00	30.178 

CoCoRaHS
IN-AL-39
A2 Web Hosting
Creative Commons License
GoDaddy
Look for:

loaded 2017-12-12 17:12:17 • last modified 2010-11-18 10:43:29
Privacy PolicyDisclaimer
• wx.awcolley.com is powered by PmWiki v.2002016 •
• all content (unless otherwise noted) © 2017 A W Colley